Aérodrome :
LOGIN :

S'inscrire | Disclaimer

   EN    FR    IT 

 










Légende :    VFR   VFR Marginal   IFR   IFR Intensif   IFR Très Intensif
Visi : 
Plafond : 
>= 8 km
>= 3000ft
5 à 8 km
1000 à 3000 ft
1500m à 5 km
500 à 1000 ft
800 à 1500m
200 à 500 ft
< 800m
< 200 ft
Symboles :   Orages  Brouillard  Fortes neiges  Fortes précipitations  Vent > 20 kt
SIGMETs :   Divers  Orages  Givrage  Turbulence  Onde Orograph.  Cendres Volcan.







- Altitude de l'aérodrome : 55 ft
- Code IATA : DSA
- Voir les cartes d'approche


EGCN - Robin Hood Doncaster Sheffield

DERNIER METAR :
  • 141850Z 13005KT CAVOK 02/01 Q1024

METARs EXPIRÉS :
  • 141820Z 12005KT 090V160 CAVOK 01/00 Q1024
  • 141750Z 13005KT CAVOK 02/M00 Q1024
  • 141720Z 14003KT CAVOK 00/M01 Q1024
  • 141650Z 15003KT 9999 FEW040 01/M00 Q1024
  • 141620Z 15003KT 9999 FEW039 01/M02 Q1024

TAF TAF EGCN
Valide du 14 à 18h jusqu'au 15 à 18h UTC


141706Z 1418/1518 14002KT 9999 FEW035
TEMPO 1418/1506 8000
PROB30
TEMPO 1418/1422 2000 BR
PROB30
TEMPO 1422/1506 0300 FZFG BKN001
BECMG 1503/1506 16012KT
TEMPO 1506/1518 17015G25KT
PROB30
TEMPO 1510/1518 17020G35KT
TEMPO 1512/1518 6000 RA
PROB30
TEMPO 1512/1518 4000 FZRA BKN012
Pas de NOTAMs connus pour ce terrain.



MET'MAP, la Météo Aéronautique d'un coup d'oeil ! - Copyright ORBIFLY Décembre 2007 - Disclaimer

ORBIFLY MET'MAP TEAM :

Programmation & Développement : Alexandra Zaïnal
Conception & Développement : Baudouin d'Aumeries
Co-Programmation & Développement : Marc-Olivier Méhu
Soutien technique & logistique : Manuel Goepfert

Contact : metmap@orbifly.com




SOURCES & CREDITS :

   NOAA